sensor_id;sensor_type;location;lat;lon;timestamp;P1;durP1;ratioP1;P2;durP2;ratioP2
60030;SDS011;45901;47.600;9.890;2023-02-01T00:00:43;9.93;;;4.03;;
60030;SDS011;45901;47.600;9.890;2023-02-01T00:03:37;5.87;;;3.47;;
60030;SDS011;45901;47.600;9.890;2023-02-01T00:06:06;5.07;;;3.00;;
60030;SDS011;45901;47.600;9.890;2023-02-01T00:08:37;7.60;;;3.97;;
60030;SDS011;45901;47.600;9.890;2023-02-01T00:11:05;6.43;;;3.57;;
60030;SDS011;45901;47.600;9.890;2023-02-01T00:13:37;6.97;;;3.80;;
60030;SDS011;45901;47.600;9.890;2023-02-01T00:16:08;5.40;;;3.73;;
60030;SDS011;45901;47.600;9.890;2023-02-01T00:18:39;6.53;;;3.67;;
60030;SDS011;45901;47.600;9.890;2023-02-01T00:21:07;8.60;;;3.80;;
60030;SDS011;45901;47.600;9.890;2023-02-01T00:23:35;7.10;;;4.17;;
60030;SDS011;45901;47.600;9.890;2023-02-01T00:26:05;8.03;;;4.17;;
60030;SDS011;45901;47.600;9.890;2023-02-01T00:28:41;7.87;;;3.80;;
60030;SDS011;45901;47.600;9.890;2023-02-01T00:31:08;6.60;;;3.57;;
60030;SDS011;45901;47.600;9.890;2023-02-01T00:33:35;5.23;;;3.70;;
60030;SDS011;45901;47.600;9.890;2023-02-01T00:36:05;6.83;;;3.80;;
60030;SDS011;45901;47.600;9.890;2023-02-01T00:38:35;6.00;;;3.77;;
60030;SDS011;45901;47.600;9.890;2023-02-01T00:41:04;8.23;;;4.00;;
60030;SDS011;45901;47.600;9.890;2023-02-01T00:43:34;8.43;;;4.00;;
60030;SDS011;45901;47.600;9.890;2023-02-01T00:46:01;7.93;;;3.70;;
60030;SDS011;45901;47.600;9.890;2023-02-01T00:48:29;6.87;;;4.20;;
60030;SDS011;45901;47.600;9.890;2023-02-01T00:50:58;7.23;;;3.83;;
60030;SDS011;45901;47.600;9.890;2023-02-01T00:53:27;8.97;;;4.17;;
60030;SDS011;45901;47.600;9.890;2023-02-01T00:55:55;9.63;;;4.07;;
60030;SDS011;45901;47.600;9.890;2023-02-01T00:58:22;9.50;;;3.90;;
60030;SDS011;45901;47.600;9.890;2023-02-01T01:00:56;5.83;;;3.60;;
60030;SDS011;45901;47.600;9.890;2023-02-01T01:03:29;7.77;;;3.70;;
60030;SDS011;45901;47.600;9.890;2023-02-01T01:05:59;7.80;;;3.93;;
60030;SDS011;45901;47.600;9.890;2023-02-01T01:08:31;9.30;;;4.27;;
60030;SDS011;45901;47.600;9.890;2023-02-01T01:10:58;6.93;;;4.50;;
60030;SDS011;45901;47.600;9.890;2023-02-01T01:13:30;6.20;;;3.73;;
60030;SDS011;45901;47.600;9.890;2023-02-01T01:15:59;9.23;;;4.60;;
60030;SDS011;45901;47.600;9.890;2023-02-01T01:18:29;13.60;;;5.20;;
60030;SDS011;45901;47.600;9.890;2023-02-01T01:20:57;8.23;;;4.77;;
60030;SDS011;45901;47.600;9.890;2023-02-01T01:23:25;9.97;;;5.33;;
60030;SDS011;45901;47.600;9.890;2023-02-01T01:25:55;11.10;;;4.90;;
60030;SDS011;45901;47.600;9.890;2023-02-01T01:28:22;9.10;;;4.63;;
60030;SDS011;45901;47.600;9.890;2023-02-01T01:30:50;7.73;;;4.43;;
60030;SDS011;45901;47.600;9.890;2023-02-01T01:33:17;7.23;;;4.23;;
60030;SDS011;45901;47.600;9.890;2023-02-01T01:35:45;7.97;;;4.67;;
60030;SDS011;45901;47.600;9.890;2023-02-01T01:38:13;8.10;;;4.27;;
60030;SDS011;45901;47.600;9.890;2023-02-01T01:40:40;6.13;;;4.13;;
60030;SDS011;45901;47.600;9.890;2023-02-01T01:43:14;9.40;;;4.53;;
60030;SDS011;45901;47.600;9.890;2023-02-01T01:45:44;7.17;;;4.37;;
60030;SDS011;45901;47.600;9.890;2023-02-01T01:48:13;8.40;;;4.60;;
60030;SDS011;45901;47.600;9.890;2023-02-01T01:50:48;8.77;;;4.23;;
60030;SDS011;45901;47.600;9.890;2023-02-01T01:53:22;8.23;;;4.27;;
60030;SDS011;45901;47.600;9.890;2023-02-01T01:55:53;8.03;;;4.63;;
60030;SDS011;45901;47.600;9.890;2023-02-01T01:58:24;6.27;;;4.47;;
60030;SDS011;45901;47.600;9.890;2023-02-01T02:00:54;10.60;;;4.13;;
60030;SDS011;45901;47.600;9.890;2023-02-01T02:03:22;7.80;;;4.70;;
60030;SDS011;45901;47.600;9.890;2023-02-01T02:05:53;9.07;;;4.73;;
60030;SDS011;45901;47.600;9.890;2023-02-01T02:08:25;8.30;;;4.37;;
60030;SDS011;45901;47.600;9.890;2023-02-01T02:10:54;8.53;;;4.20;;
60030;SDS011;45901;47.600;9.890;2023-02-01T02:13:29;8.97;;;3.93;;
60030;SDS011;45901;47.600;9.890;2023-02-01T02:16:03;10.23;;;4.50;;
60030;SDS011;45901;47.600;9.890;2023-02-01T02:18:57;6.47;;;4.00;;
60030;SDS011;45901;47.600;9.890;2023-02-01T02:22:04;9.43;;;4.60;;
60030;SDS011;45901;47.600;9.890;2023-02-01T02:25:14;7.60;;;4.37;;
60030;SDS011;45901;47.600;9.890;2023-02-01T02:28:05;8.20;;;4.43;;
60030;SDS011;45901;47.600;9.890;2023-02-01T02:30:51;7.63;;;4.53;;
60030;SDS011;45901;47.600;9.890;2023-02-01T02:33:55;7.20;;;4.63;;
60030;SDS011;45901;47.600;9.890;2023-02-01T02:36:31;6.70;;;4.17;;
60030;SDS011;45901;47.600;9.890;2023-02-01T02:39:11;9.13;;;4.60;;
60030;SDS011;45901;47.600;9.890;2023-02-01T02:41:50;11.67;;;6.17;;
60030;SDS011;45901;47.600;9.890;2023-02-01T02:44:46;11.23;;;6.40;;
60030;SDS011;45901;47.600;9.890;2023-02-01T02:47:40;10.60;;;6.00;;
60030;SDS011;45901;47.600;9.890;2023-02-01T02:50:26;11.73;;;6.20;;
60030;SDS011;45901;47.600;9.890;2023-02-01T02:53:16;10.97;;;5.83;;
60030;SDS011;45901;47.600;9.890;2023-02-01T02:56:07;9.80;;;6.23;;
60030;SDS011;45901;47.600;9.890;2023-02-01T02:58:53;10.47;;;5.83;;
60030;SDS011;45901;47.600;9.890;2023-02-01T03:01:39;8.80;;;5.37;;
60030;SDS011;45901;47.600;9.890;2023-02-01T03:04:25;8.00;;;5.00;;
60030;SDS011;45901;47.600;9.890;2023-02-01T03:06:53;9.03;;;5.07;;
60030;SDS011;45901;47.600;9.890;2023-02-01T03:09:22;6.80;;;4.40;;
60030;SDS011;45901;47.600;9.890;2023-02-01T03:11:56;9.13;;;5.23;;
60030;SDS011;45901;47.600;9.890;2023-02-01T03:14:46;10.73;;;5.50;;
60030;SDS011;45901;47.600;9.890;2023-02-01T03:17:19;9.77;;;5.40;;
60030;SDS011;45901;47.600;9.890;2023-02-01T03:19:53;8.40;;;5.20;;
60030;SDS011;45901;47.600;9.890;2023-02-01T03:22:27;8.47;;;4.93;;
60030;SDS011;45901;47.600;9.890;2023-02-01T03:24:58;9.47;;;4.73;;
60030;SDS011;45901;47.600;9.890;2023-02-01T03:27:32;8.10;;;4.80;;
60030;SDS011;45901;47.600;9.890;2023-02-01T03:30:06;7.20;;;3.87;;
60030;SDS011;45901;47.600;9.890;2023-02-01T03:32:48;6.63;;;3.90;;
60030;SDS011;45901;47.600;9.890;2023-02-01T03:35:27;10.00;;;4.40;;
60030;SDS011;45901;47.600;9.890;2023-02-01T03:38:03;8.47;;;5.00;;
60030;SDS011;45901;47.600;9.890;2023-02-01T03:40:39;11.03;;;5.87;;
60030;SDS011;45901;47.600;9.890;2023-02-01T03:43:12;9.43;;;5.70;;
60030;SDS011;45901;47.600;9.890;2023-02-01T03:45:45;9.20;;;4.73;;
60030;SDS011;45901;47.600;9.890;2023-02-01T03:48:18;9.40;;;4.20;;
60030;SDS011;45901;47.600;9.890;2023-02-01T03:50:50;7.60;;;3.97;;
60030;SDS011;45901;47.600;9.890;2023-02-01T03:53:23;7.27;;;3.47;;
60030;SDS011;45901;47.600;9.890;2023-02-01T03:55:52;7.63;;;3.83;;
60030;SDS011;45901;47.600;9.890;2023-02-01T03:58:22;6.10;;;3.37;;
60030;SDS011;45901;47.600;9.890;2023-02-01T04:00:51;5.87;;;3.90;;
60030;SDS011;45901;47.600;9.890;2023-02-01T04:03:21;8.37;;;3.67;;
60030;SDS011;45901;47.600;9.890;2023-02-01T04:05:50;6.93;;;4.07;;
60030;SDS011;45901;47.600;9.890;2023-02-01T04:08:18;9.83;;;3.67;;
60030;SDS011;45901;47.600;9.890;2023-02-01T04:10:47;7.63;;;4.03;;
60030;SDS011;45901;47.600;9.890;2023-02-01T04:13:15;6.67;;;3.40;;
60030;SDS011;45901;47.600;9.890;2023-02-01T04:15:44;6.47;;;3.50;;
60030;SDS011;45901;47.600;9.890;2023-02-01T04:18:15;7.43;;;3.40;;
60030;SDS011;45901;47.600;9.890;2023-02-01T04:20:42;6.57;;;3.60;;
60030;SDS011;45901;47.600;9.890;2023-02-01T04:23:10;6.53;;;3.63;;
60030;SDS011;45901;47.600;9.890;2023-02-01T04:25:37;7.10;;;3.40;;
60030;SDS011;45901;47.600;9.890;2023-02-01T04:28:06;6.50;;;3.87;;
60030;SDS011;45901;47.600;9.890;2023-02-01T04:30:34;7.20;;;3.23;;
60030;SDS011;45901;47.600;9.890;2023-02-01T04:33:01;7.07;;;3.33;;
60030;SDS011;45901;47.600;9.890;2023-02-01T04:35:31;5.20;;;2.97;;
60030;SDS011;45901;47.600;9.890;2023-02-01T04:37:58;5.97;;;3.80;;
60030;SDS011;45901;47.600;9.890;2023-02-01T04:40:25;6.77;;;3.40;;
60030;SDS011;45901;47.600;9.890;2023-02-01T04:42:52;6.13;;;3.43;;
60030;SDS011;45901;47.600;9.890;2023-02-01T04:45:21;7.43;;;3.83;;
60030;SDS011;45901;47.600;9.890;2023-02-01T04:47:48;5.87;;;3.70;;
60030;SDS011;45901;47.600;9.890;2023-02-01T04:50:15;6.43;;;3.63;;
60030;SDS011;45901;47.600;9.890;2023-02-01T04:52:43;6.17;;;3.57;;
60030;SDS011;45901;47.600;9.890;2023-02-01T04:55:12;6.17;;;3.70;;
60030;SDS011;45901;47.600;9.890;2023-02-01T04:57:39;6.23;;;3.70;;
60030;SDS011;45901;47.600;9.890;2023-02-01T05:00:07;7.20;;;3.47;;
60030;SDS011;45901;47.600;9.890;2023-02-01T05:02:37;6.80;;;3.50;;
60030;SDS011;45901;47.600;9.890;2023-02-01T05:05:05;5.57;;;3.20;;
60030;SDS011;45901;47.600;9.890;2023-02-01T05:07:33;8.97;;;3.63;;
60030;SDS011;45901;47.600;9.890;2023-02-01T05:10:00;5.50;;;3.40;;
60030;SDS011;45901;47.600;9.890;2023-02-01T05:12:27;8.63;;;3.80;;
60030;SDS011;45901;47.600;9.890;2023-02-01T05:15:12;7.47;;;4.00;;
60030;SDS011;45901;47.600;9.890;2023-02-01T05:17:42;8.17;;;4.07;;
60030;SDS011;45901;47.600;9.890;2023-02-01T05:20:10;6.37;;;3.47;;
60030;SDS011;45901;47.600;9.890;2023-02-01T05:22:37;6.73;;;4.00;;
60030;SDS011;45901;47.600;9.890;2023-02-01T05:25:05;7.40;;;3.93;;
60030;SDS011;45901;47.600;9.890;2023-02-01T05:27:32;6.67;;;4.10;;
60030;SDS011;45901;47.600;9.890;2023-02-01T05:29:59;9.07;;;4.37;;
60030;SDS011;45901;47.600;9.890;2023-02-01T05:32:27;6.53;;;4.23;;
60030;SDS011;45901;47.600;9.890;2023-02-01T05:34:55;7.03;;;4.03;;
60030;SDS011;45901;47.600;9.890;2023-02-01T05:37:22;6.83;;;3.97;;
60030;SDS011;45901;47.600;9.890;2023-02-01T05:39:50;12.00;;;5.43;;
60030;SDS011;45901;47.600;9.890;2023-02-01T05:42:17;6.53;;;3.67;;
60030;SDS011;45901;47.600;9.890;2023-02-01T05:44:44;8.90;;;4.37;;
60030;SDS011;45901;47.600;9.890;2023-02-01T05:47:11;8.60;;;4.10;;
60030;SDS011;45901;47.600;9.890;2023-02-01T05:49:39;6.50;;;3.40;;
60030;SDS011;45901;47.600;9.890;2023-02-01T05:52:07;7.23;;;3.50;;
60030;SDS011;45901;47.600;9.890;2023-02-01T05:54:34;6.20;;;4.10;;
60030;SDS011;45901;47.600;9.890;2023-02-01T05:57:01;5.67;;;3.80;;
60030;SDS011;45901;47.600;9.890;2023-02-01T05:59:29;7.17;;;3.67;;
60030;SDS011;45901;47.600;9.890;2023-02-01T06:01:56;8.43;;;3.93;;
60030;SDS011;45901;47.600;9.890;2023-02-01T06:04:24;6.50;;;3.93;;
60030;SDS011;45901;47.600;9.890;2023-02-01T06:06:51;7.50;;;3.87;;
60030;SDS011;45901;47.600;9.890;2023-02-01T06:09:20;6.83;;;3.93;;
60030;SDS011;45901;47.600;9.890;2023-02-01T06:11:47;7.03;;;3.83;;
60030;SDS011;45901;47.600;9.890;2023-02-01T06:14:14;6.37;;;3.37;;
60030;SDS011;45901;47.600;9.890;2023-02-01T06:16:41;10.50;;;4.07;;
60030;SDS011;45901;47.600;9.890;2023-02-01T06:19:10;6.03;;;3.40;;
60030;SDS011;45901;47.600;9.890;2023-02-01T06:21:37;7.50;;;3.53;;
60030;SDS011;45901;47.600;9.890;2023-02-01T06:24:05;5.37;;;3.10;;
60030;SDS011;45901;47.600;9.890;2023-02-01T06:26:34;6.97;;;3.57;;
60030;SDS011;45901;47.600;9.890;2023-02-01T06:29:01;7.13;;;3.67;;
60030;SDS011;45901;47.600;9.890;2023-02-01T06:31:28;10.17;;;4.10;;
60030;SDS011;45901;47.600;9.890;2023-02-01T06:33:57;9.00;;;4.20;;
60030;SDS011;45901;47.600;9.890;2023-02-01T06:36:24;5.87;;;3.80;;
60030;SDS011;45901;47.600;9.890;2023-02-01T06:38:51;6.77;;;3.90;;
60030;SDS011;45901;47.600;9.890;2023-02-01T06:41:19;8.77;;;4.70;;
60030;SDS011;45901;47.600;9.890;2023-02-01T06:43:48;7.13;;;4.40;;
60030;SDS011;45901;47.600;9.890;2023-02-01T06:46:15;9.03;;;3.70;;
60030;SDS011;45901;47.600;9.890;2023-02-01T06:48:43;10.47;;;3.93;;
60030;SDS011;45901;47.600;9.890;2023-02-01T06:51:17;5.90;;;3.67;;
60030;SDS011;45901;47.600;9.890;2023-02-01T06:53:47;5.70;;;3.60;;
60030;SDS011;45901;47.600;9.890;2023-02-01T06:56:15;6.90;;;3.63;;
60030;SDS011;45901;47.600;9.890;2023-02-01T06:58:42;6.77;;;3.80;;
60030;SDS011;45901;47.600;9.890;2023-02-01T07:01:11;6.73;;;4.17;;
60030;SDS011;45901;47.600;9.890;2023-02-01T07:03:39;8.97;;;3.83;;
60030;SDS011;45901;47.600;9.890;2023-02-01T07:06:07;7.63;;;3.83;;
60030;SDS011;45901;47.600;9.890;2023-02-01T07:08:36;7.73;;;3.90;;
60030;SDS011;45901;47.600;9.890;2023-02-01T07:11:04;5.87;;;3.40;;
60030;SDS011;45901;47.600;9.890;2023-02-01T07:13:34;6.57;;;3.80;;
60030;SDS011;45901;47.600;9.890;2023-02-01T07:16:02;10.60;;;4.03;;
60030;SDS011;45901;47.600;9.890;2023-02-01T07:18:33;9.47;;;5.50;;
60030;SDS011;45901;47.600;9.890;2023-02-01T07:21:00;9.73;;;4.40;;
60030;SDS011;45901;47.600;9.890;2023-02-01T07:23:28;9.30;;;4.53;;
60030;SDS011;45901;47.600;9.890;2023-02-01T07:25:55;9.27;;;4.43;;
60030;SDS011;45901;47.600;9.890;2023-02-01T07:28:24;7.80;;;4.50;;
60030;SDS011;45901;47.600;9.890;2023-02-01T07:30:52;7.70;;;3.90;;
60030;SDS011;45901;47.600;9.890;2023-02-01T07:33:20;7.67;;;4.97;;
60030;SDS011;45901;47.600;9.890;2023-02-01T07:35:50;9.70;;;6.17;;
60030;SDS011;45901;47.600;9.890;2023-02-01T07:38:17;10.17;;;5.20;;
60030;SDS011;45901;47.600;9.890;2023-02-01T07:40:47;12.33;;;7.10;;
60030;SDS011;45901;47.600;9.890;2023-02-01T07:43:15;11.30;;;7.47;;
60030;SDS011;45901;47.600;9.890;2023-02-01T07:45:42;10.53;;;6.67;;
60030;SDS011;45901;47.600;9.890;2023-02-01T07:48:09;9.27;;;4.67;;
60030;SDS011;45901;47.600;9.890;2023-02-01T07:50:36;12.30;;;5.77;;
60030;SDS011;45901;47.600;9.890;2023-02-01T07:53:04;13.17;;;6.13;;
60030;SDS011;45901;47.600;9.890;2023-02-01T07:55:32;8.40;;;5.27;;
60030;SDS011;45901;47.600;9.890;2023-02-01T07:58:00;8.60;;;4.97;;
60030;SDS011;45901;47.600;9.890;2023-02-01T08:00:27;9.47;;;5.20;;
60030;SDS011;45901;47.600;9.890;2023-02-01T08:03:11;11.40;;;4.97;;
60030;SDS011;45901;47.600;9.890;2023-02-01T08:05:39;8.37;;;5.20;;
60030;SDS011;45901;47.600;9.890;2023-02-01T08:08:08;9.13;;;5.17;;
60030;SDS011;45901;47.600;9.890;2023-02-01T08:10:35;8.50;;;4.80;;
60030;SDS011;45901;47.600;9.890;2023-02-01T08:13:02;9.73;;;5.30;;
60030;SDS011;45901;47.600;9.890;2023-02-01T08:15:29;6.83;;;4.13;;
60030;SDS011;45901;47.600;9.890;2023-02-01T08:17:57;10.07;;;4.73;;
60030;SDS011;45901;47.600;9.890;2023-02-01T08:20:25;8.53;;;5.00;;
60030;SDS011;45901;47.600;9.890;2023-02-01T08:22:52;7.57;;;4.27;;
60030;SDS011;45901;47.600;9.890;2023-02-01T08:25:21;7.23;;;4.17;;
60030;SDS011;45901;47.600;9.890;2023-02-01T08:27:49;8.60;;;4.20;;
60030;SDS011;45901;47.600;9.890;2023-02-01T08:30:17;7.93;;;4.13;;
60030;SDS011;45901;47.600;9.890;2023-02-01T08:32:44;8.37;;;4.63;;
60030;SDS011;45901;47.600;9.890;2023-02-01T08:35:11;6.50;;;4.17;;
60030;SDS011;45901;47.600;9.890;2023-02-01T08:37:38;8.57;;;4.03;;
60030;SDS011;45901;47.600;9.890;2023-02-01T08:40:07;8.00;;;4.37;;
60030;SDS011;45901;47.600;9.890;2023-02-01T08:42:37;7.63;;;4.50;;
60030;SDS011;45901;47.600;9.890;2023-02-01T08:45:19;11.43;;;4.10;;
60030;SDS011;45901;47.600;9.890;2023-02-01T08:47:50;9.13;;;4.03;;
60030;SDS011;45901;47.600;9.890;2023-02-01T08:50:18;6.30;;;3.53;;
60030;SDS011;45901;47.600;9.890;2023-02-01T08:52:46;5.20;;;3.00;;
60030;SDS011;45901;47.600;9.890;2023-02-01T08:55:14;6.17;;;3.37;;
60030;SDS011;45901;47.600;9.890;2023-02-01T09:16:52;6.43;;;3.50;;
60030;SDS011;45901;47.600;9.890;2023-02-01T09:19:21;6.43;;;3.80;;
60030;SDS011;45901;47.600;9.890;2023-02-01T09:21:49;8.67;;;2.87;;
60030;SDS011;45901;47.600;9.890;2023-02-01T09:24:25;5.57;;;3.17;;
60030;SDS011;45901;47.600;9.890;2023-02-01T09:26:54;7.53;;;3.43;;
60030;SDS011;45901;47.600;9.890;2023-02-01T09:30:20;5.13;;;2.60;;
60030;SDS011;45901;47.600;9.890;2023-02-01T09:37:10;6.17;;;2.97;;
60030;SDS011;45901;47.600;9.890;2023-02-01T09:39:52;8.53;;;5.27;;
60030;SDS011;45901;47.600;9.890;2023-02-01T09:42:23;5.80;;;3.93;;
60030;SDS011;45901;47.600;9.890;2023-02-01T09:45:43;5.10;;;2.40;;
60030;SDS011;45901;47.600;9.890;2023-02-01T09:48:28;6.87;;;2.73;;
60030;SDS011;45901;47.600;9.890;2023-02-01T09:51:03;4.13;;;2.67;;
60030;SDS011;45901;47.600;9.890;2023-02-01T09:53:42;5.53;;;2.60;;
60030;SDS011;45901;47.600;9.890;2023-02-01T09:56:23;5.47;;;2.70;;
60030;SDS011;45901;47.600;9.890;2023-02-01T09:59:28;7.33;;;2.60;;
60030;SDS011;45901;47.600;9.890;2023-02-01T10:02:57;6.10;;;3.17;;
60030;SDS011;45901;47.600;9.890;2023-02-01T10:05:40;7.13;;;2.77;;
60030;SDS011;45901;47.600;9.890;2023-02-01T10:16:23;5.97;;;2.80;;
60030;SDS011;45901;47.600;9.890;2023-02-01T10:19:21;4.77;;;2.10;;
60030;SDS011;45901;47.600;9.890;2023-02-01T10:22:06;3.70;;;2.03;;
60030;SDS011;45901;47.600;9.890;2023-02-01T10:24:59;4.20;;;2.00;;
60030;SDS011;45901;47.600;9.890;2023-02-01T10:27:41;3.70;;;1.93;;
60030;SDS011;45901;47.600;9.890;2023-02-01T10:30:20;4.50;;;2.03;;
60030;SDS011;45901;47.600;9.890;2023-02-01T10:33:43;4.00;;;2.00;;
60030;SDS011;45901;47.600;9.890;2023-02-01T10:36:21;5.13;;;2.20;;
60030;SDS011;45901;47.600;9.890;2023-02-01T10:43:00;6.30;;;2.23;;
60030;SDS011;45901;47.600;9.890;2023-02-01T10:45:55;4.00;;;2.20;;
60030;SDS011;45901;47.600;9.890;2023-02-01T10:52:10;4.50;;;2.20;;
60030;SDS011;45901;47.600;9.890;2023-02-01T10:55:34;6.00;;;2.33;;
60030;SDS011;45901;47.600;9.890;2023-02-01T10:58:06;5.20;;;2.80;;
60030;SDS011;45901;47.600;9.890;2023-02-01T11:00:43;4.63;;;2.40;;
60030;SDS011;45901;47.600;9.890;2023-02-01T11:03:34;4.83;;;2.47;;
60030;SDS011;45901;47.600;9.890;2023-02-01T11:06:13;3.57;;;2.17;;
60030;SDS011;45901;47.600;9.890;2023-02-01T11:08:54;3.40;;;2.23;;
60030;SDS011;45901;47.600;9.890;2023-02-01T11:11:24;3.83;;;2.53;;
60030;SDS011;45901;47.600;9.890;2023-02-01T11:13:56;5.13;;;2.60;;
60030;SDS011;45901;47.600;9.890;2023-02-01T11:16:33;4.67;;;2.77;;
60030;SDS011;45901;47.600;9.890;2023-02-01T11:19:03;5.13;;;2.40;;
60030;SDS011;45901;47.600;9.890;2023-02-01T11:21:32;4.53;;;2.67;;
60030;SDS011;45901;47.600;9.890;2023-02-01T11:24:01;4.53;;;2.17;;
60030;SDS011;45901;47.600;9.890;2023-02-01T11:26:45;5.47;;;2.43;;
60030;SDS011;45901;47.600;9.890;2023-02-01T11:29:13;3.73;;;2.27;;
60030;SDS011;45901;47.600;9.890;2023-02-01T11:31:45;4.80;;;2.10;;
60030;SDS011;45901;47.600;9.890;2023-02-01T11:34:13;4.90;;;2.53;;
60030;SDS011;45901;47.600;9.890;2023-02-01T11:36:46;3.30;;;2.23;;
60030;SDS011;45901;47.600;9.890;2023-02-01T11:39:20;5.43;;;2.40;;
60030;SDS011;45901;47.600;9.890;2023-02-01T11:41:56;4.43;;;2.03;;
60030;SDS011;45901;47.600;9.890;2023-02-01T11:44:31;6.47;;;3.03;;
60030;SDS011;45901;47.600;9.890;2023-02-01T11:47:16;3.80;;;2.23;;
60030;SDS011;45901;47.600;9.890;2023-02-01T11:49:51;4.73;;;2.20;;
60030;SDS011;45901;47.600;9.890;2023-02-01T11:52:33;4.97;;;2.30;;
60030;SDS011;45901;47.600;9.890;2023-02-01T11:55:17;4.30;;;2.27;;
60030;SDS011;45901;47.600;9.890;2023-02-01T11:58:14;7.20;;;2.10;;
60030;SDS011;45901;47.600;9.890;2023-02-01T12:01:21;4.37;;;2.13;;
60030;SDS011;45901;47.600;9.890;2023-02-01T12:04:18;5.50;;;2.20;;
60030;SDS011;45901;47.600;9.890;2023-02-01T12:07:17;4.53;;;2.00;;
60030;SDS011;45901;47.600;9.890;2023-02-01T12:09:53;4.03;;;2.03;;
60030;SDS011;45901;47.600;9.890;2023-02-01T12:12:36;5.23;;;2.27;;
60030;SDS011;45901;47.600;9.890;2023-02-01T12:15:18;3.90;;;2.40;;
60030;SDS011;45901;47.600;9.890;2023-02-01T12:18:11;4.73;;;2.27;;
60030;SDS011;45901;47.600;9.890;2023-02-01T12:21:22;3.50;;;1.93;;
60030;SDS011;45901;47.600;9.890;2023-02-01T12:24:07;5.33;;;2.43;;
60030;SDS011;45901;47.600;9.890;2023-02-01T12:26:56;4.37;;;2.10;;
60030;SDS011;45901;47.600;9.890;2023-02-01T12:29:47;3.23;;;1.87;;
60030;SDS011;45901;47.600;9.890;2023-02-01T12:32:35;5.40;;;2.43;;
60030;SDS011;45901;47.600;9.890;2023-02-01T12:38:39;5.80;;;2.50;;
60030;SDS011;45901;47.600;9.890;2023-02-01T12:41:27;4.30;;;2.07;;
60030;SDS011;45901;47.600;9.890;2023-02-01T12:44:23;4.07;;;2.50;;
60030;SDS011;45901;47.600;9.890;2023-02-01T12:47:03;3.97;;;2.03;;
60030;SDS011;45901;47.600;9.890;2023-02-01T12:49:40;5.77;;;2.40;;
60030;SDS011;45901;47.600;9.890;2023-02-01T12:52:14;6.03;;;1.80;;
60030;SDS011;45901;47.600;9.890;2023-02-01T12:54:47;3.67;;;2.10;;
60030;SDS011;45901;47.600;9.890;2023-02-01T12:57:22;5.03;;;2.20;;
60030;SDS011;45901;47.600;9.890;2023-02-01T12:59:56;4.83;;;2.77;;
60030;SDS011;45901;47.600;9.890;2023-02-01T13:02:37;4.37;;;2.40;;
60030;SDS011;45901;47.600;9.890;2023-02-01T13:05:16;4.57;;;2.93;;
60030;SDS011;45901;47.600;9.890;2023-02-01T13:07:48;4.90;;;2.40;;
60030;SDS011;45901;47.600;9.890;2023-02-01T13:10:24;6.17;;;2.57;;
60030;SDS011;45901;47.600;9.890;2023-02-01T13:13:02;6.13;;;2.80;;
60030;SDS011;45901;47.600;9.890;2023-02-01T13:15:40;7.83;;;3.30;;
60030;SDS011;45901;47.600;9.890;2023-02-01T13:18:16;4.97;;;2.37;;
60030;SDS011;45901;47.600;9.890;2023-02-01T13:20:50;6.17;;;1.90;;
60030;SDS011;45901;47.600;9.890;2023-02-01T13:23:29;6.73;;;2.17;;
60030;SDS011;45901;47.600;9.890;2023-02-01T13:26:01;4.50;;;2.27;;
60030;SDS011;45901;47.600;9.890;2023-02-01T13:28:29;4.50;;;2.10;;
60030;SDS011;45901;47.600;9.890;2023-02-01T13:31:20;4.57;;;2.40;;
60030;SDS011;45901;47.600;9.890;2023-02-01T13:34:28;6.63;;;2.53;;
60030;SDS011;45901;47.600;9.890;2023-02-01T13:37:31;4.37;;;2.10;;
60030;SDS011;45901;47.600;9.890;2023-02-01T13:40:21;5.30;;;2.30;;
60030;SDS011;45901;47.600;9.890;2023-02-01T13:43:05;3.57;;;2.00;;
60030;SDS011;45901;47.600;9.890;2023-02-01T13:45:42;5.13;;;2.27;;
60030;SDS011;45901;47.600;9.890;2023-02-01T13:48:22;5.23;;;2.53;;
60030;SDS011;45901;47.600;9.890;2023-02-01T13:50:55;5.67;;;2.40;;
60030;SDS011;45901;47.600;9.890;2023-02-01T13:53:29;9.73;;;2.80;;
60030;SDS011;45901;47.600;9.890;2023-02-01T13:56:02;7.23;;;2.30;;
60030;SDS011;45901;47.600;9.890;2023-02-01T13:58:36;6.87;;;2.30;;
60030;SDS011;45901;47.600;9.890;2023-02-01T14:18:16;2.93;;;1.57;;
60030;SDS011;45901;47.600;9.890;2023-02-01T14:21:47;7.37;;;2.13;;
60030;SDS011;45901;47.600;9.890;2023-02-01T14:24:20;5.33;;;2.10;;
60030;SDS011;45901;47.600;9.890;2023-02-01T14:26:52;7.30;;;2.90;;
60030;SDS011;45901;47.600;9.890;2023-02-01T14:29:29;7.43;;;2.63;;
60030;SDS011;45901;47.600;9.890;2023-02-01T14:32:01;6.63;;;2.80;;
60030;SDS011;45901;47.600;9.890;2023-02-01T14:34:39;7.17;;;2.90;;
60030;SDS011;45901;47.600;9.890;2023-02-01T14:37:24;6.80;;;3.10;;
60030;SDS011;45901;47.600;9.890;2023-02-01T14:39:57;8.20;;;3.33;;
60030;SDS011;45901;47.600;9.890;2023-02-01T14:42:28;7.33;;;2.97;;
60030;SDS011;45901;47.600;9.890;2023-02-01T14:51:13;8.30;;;3.07;;
60030;SDS011;45901;47.600;9.890;2023-02-01T14:53:43;8.13;;;3.20;;
60030;SDS011;45901;47.600;9.890;2023-02-01T14:56:12;10.97;;;3.00;;
60030;SDS011;45901;47.600;9.890;2023-02-01T14:58:47;9.03;;;2.93;;
60030;SDS011;45901;47.600;9.890;2023-02-01T15:01:23;7.37;;;2.87;;
60030;SDS011;45901;47.600;9.890;2023-02-01T15:03:56;9.90;;;2.97;;
60030;SDS011;45901;47.600;9.890;2023-02-01T15:06:31;4.30;;;2.30;;
60030;SDS011;45901;47.600;9.890;2023-02-01T15:09:04;17.00;;;2.70;;
60030;SDS011;45901;47.600;9.890;2023-02-01T15:14:27;9.27;;;2.60;;
60030;SDS011;45901;47.600;9.890;2023-02-01T15:16:57;7.33;;;2.37;;
60030;SDS011;45901;47.600;9.890;2023-02-01T15:19:27;5.60;;;2.20;;
60030;SDS011;45901;47.600;9.890;2023-02-01T15:21:57;8.70;;;2.30;;
60030;SDS011;45901;47.600;9.890;2023-02-01T15:24:26;5.37;;;2.33;;
60030;SDS011;45901;47.600;9.890;2023-02-01T15:26:55;5.10;;;1.87;;
60030;SDS011;45901;47.600;9.890;2023-02-01T15:29:29;8.63;;;1.93;;
60030;SDS011;45901;47.600;9.890;2023-02-01T15:31:57;7.70;;;2.53;;
60030;SDS011;45901;47.600;9.890;2023-02-01T15:37:13;8.67;;;2.70;;
60030;SDS011;45901;47.600;9.890;2023-02-01T15:42:49;8.03;;;2.00;;
60030;SDS011;45901;47.600;9.890;2023-02-01T15:45:20;6.20;;;2.20;;
60030;SDS011;45901;47.600;9.890;2023-02-01T15:47:51;8.03;;;2.07;;
60030;SDS011;45901;47.600;9.890;2023-02-01T15:50:23;9.73;;;2.20;;
60030;SDS011;45901;47.600;9.890;2023-02-01T15:52:51;3.30;;;1.90;;
60030;SDS011;45901;47.600;9.890;2023-02-01T15:55:22;9.73;;;3.27;;
60030;SDS011;45901;47.600;9.890;2023-02-01T15:57:59;10.23;;;2.37;;
60030;SDS011;45901;47.600;9.890;2023-02-01T16:00:26;7.43;;;2.10;;
60030;SDS011;45901;47.600;9.890;2023-02-01T16:02:59;9.67;;;1.93;;
60030;SDS011;45901;47.600;9.890;2023-02-01T16:05:33;8.63;;;2.30;;
60030;SDS011;45901;47.600;9.890;2023-02-01T16:08:04;5.07;;;1.80;;
60030;SDS011;45901;47.600;9.890;2023-02-01T16:10:38;7.57;;;2.67;;
60030;SDS011;45901;47.600;9.890;2023-02-01T16:13:07;5.93;;;1.73;;
60030;SDS011;45901;47.600;9.890;2023-02-01T16:15:35;8.67;;;2.37;;
60030;SDS011;45901;47.600;9.890;2023-02-01T16:18:02;15.27;;;2.43;;
60030;SDS011;45901;47.600;9.890;2023-02-01T16:20:30;6.87;;;2.17;;
60030;SDS011;45901;47.600;9.890;2023-02-01T16:22:59;9.03;;;2.57;;
60030;SDS011;45901;47.600;9.890;2023-02-01T16:25:27;14.73;;;3.37;;
60030;SDS011;45901;47.600;9.890;2023-02-01T16:27:54;7.53;;;2.63;;
60030;SDS011;45901;47.600;9.890;2023-02-01T16:30:21;9.47;;;2.50;;
60030;SDS011;45901;47.600;9.890;2023-02-01T16:32:49;14.57;;;3.30;;
60030;SDS011;45901;47.600;9.890;2023-02-01T16:35:20;8.10;;;2.20;;
60030;SDS011;45901;47.600;9.890;2023-02-01T16:37:50;11.40;;;3.00;;
60030;SDS011;45901;47.600;9.890;2023-02-01T16:40:19;12.50;;;2.73;;
60030;SDS011;45901;47.600;9.890;2023-02-01T16:42:48;13.37;;;3.10;;